KSWO/SWO METAR and TAF weather

Enter ICAO airport designator
Station Type Date Time Source
KSWO METAR 2021/09/25 11:53 UTC NOAA

KSWO 251153Z AUTO 04007KT 10SM CLR 12/09 A3015 RMK AO2 SLP200 T01220094 10189 20117 53010


Station Type Date Time Source
KSWO Decoded METAR 2021/09/25 11:53 UTC NOAA

STILLWATER REGIONAL AIRPORT, OK, United States (KSWO) 36-10N 97-05W 290M
Sep 25, 2021 - 07:53 AM EDT / 2021.09.25 1153 UTC
Wind: from the NE (040 degrees) at 8 MPH (7 KT):0
Visibility: 10 mile(s):0
Sky conditions: clear
Temperature: 54.0 F (12.2 C)
Dew Point: 48.9 F (9.4 C)
Relative Humidity: 82%
Pressure (altimeter): 30.15 in. Hg (1020 hPa)
Pressure tendency: 0.03 inches (1.0 hPa) higher than three hours ago
ob: KSWO 251153Z AUTO 04007KT 10SM CLR 12/09 A3015 RMK AO2 SLP200 T01220094 10189 20117 53010
cycle: 12

Station Type Date Time Source
KSWO TAF 2021/09/25 12:54 UTC NOAA

TAF KSWO 251151Z 2512/2612 06005KT P6SM SKC
FM252000 12008KT P6SM FEW250

Example: see airport list